createdAt,value
2019-02-14T00:00:03.448Z,1038.9
2019-02-14T00:01:03.851Z,1039
2019-02-14T00:02:03.232Z,1038.9
2019-02-14T00:03:03.606Z,1038.9
2019-02-14T00:04:02.950Z,1038.9
2019-02-14T00:05:03.799Z,1038.9
2019-02-14T00:06:03.906Z,1038.9
2019-02-14T00:07:03.729Z,1038.9
2019-02-14T00:08:03.815Z,1038.8
2019-02-14T00:09:02.995Z,1038.9
2019-02-14T00:10:03.808Z,1038.9
2019-02-14T00:11:03.156Z,1039
2019-02-14T00:12:03.087Z,1038.9
2019-02-14T00:13:03.482Z,1039
2019-02-14T00:14:03.536Z,1038.9
2019-02-14T00:15:03.061Z,1038.9
2019-02-14T00:16:03.914Z,1039
2019-02-14T00:17:03.424Z,1038.9
2019-02-14T00:18:03.525Z,1039
2019-02-14T00:19:03.824Z,1039
2019-02-14T00:20:03.195Z,1038.9
2019-02-14T00:21:03.555Z,1038.8
2019-02-14T00:22:03.185Z,1039
2019-02-14T00:23:03.384Z,1039
2019-02-14T00:24:02.997Z,1038.9
2019-02-14T00:25:03.499Z,1038.9
2019-02-14T00:26:03.719Z,1038.9
2019-02-14T00:27:03.324Z,1038.9
2019-02-14T00:28:03.488Z,1038.8
2019-02-14T00:29:03.170Z,1038.8
2019-02-14T00:30:03.709Z,1038.8
2019-02-14T00:31:03.534Z,1039
2019-02-14T00:32:03.370Z,1038.9
2019-02-14T00:33:03.459Z,1039
2019-02-14T00:34:02.797Z,1038.9
2019-02-14T00:35:03.553Z,1038.9
2019-02-14T00:36:03.864Z,1038.9
2019-02-14T00:37:03.396Z,1039
2019-02-14T00:38:02.782Z,1038.9
2019-02-14T00:39:03.362Z,1038.8
2019-02-14T00:40:03.720Z,1039
2019-02-14T00:41:03.237Z,1039
2019-02-14T00:42:03.396Z,1038.8
2019-02-14T00:43:02.768Z,1038.8
2019-02-14T00:44:03.275Z,1038.8
2019-02-14T00:45:03.835Z,1038.8
2019-02-14T00:46:03.503Z,1038.8
2019-02-14T00:47:03.908Z,1038.7
2019-02-14T00:48:03.285Z,1038.8
2019-02-14T00:49:03.936Z,1038.8
2019-02-14T00:50:03.235Z,1038.7
2019-02-14T00:51:03.883Z,1038.7
2019-02-14T00:52:03.212Z,1038.7
2019-02-14T00:53:03.813Z,1038.6
2019-02-14T00:54:03.013Z,1038.7
2019-02-14T00:55:03.951Z,1038.7
2019-02-14T00:56:03.137Z,1038.7
2019-02-14T00:57:03.812Z,1038.8
2019-02-14T00:58:03.267Z,1038.6
2019-02-14T00:59:03.660Z,1038.7
2019-02-14T01:00:03.209Z,1038.7
2019-02-14T01:01:03.477Z,1038.7
2019-02-14T01:02:03.885Z,1038.7
2019-02-14T01:03:03.508Z,1038.7
2019-02-14T01:04:03.924Z,1038.7
2019-02-14T01:05:03.292Z,1038.6
2019-02-14T01:06:03.585Z,1038.6
2019-02-14T01:07:03.316Z,1038.7
2019-02-14T01:08:03.841Z,1038.7
2019-02-14T01:09:03.102Z,1038.6
2019-02-14T01:10:03.802Z,1038.7
2019-02-14T01:11:02.904Z,1038.7
2019-02-14T01:12:03.485Z,1038.8
2019-02-14T01:13:03.188Z,1038.8
2019-02-14T01:14:03.470Z,1038.8
2019-02-14T01:15:02.995Z,1038.8
2019-02-14T01:16:03.478Z,1038.7
2019-02-14T01:17:03.223Z,1038.8
2019-02-14T01:18:03.823Z,1038.8
2019-02-14T01:19:03.181Z,1038.8
2019-02-14T01:20:03.652Z,1038.9
2019-02-14T01:21:03.852Z,1038.8
2019-02-14T01:22:03.298Z,1038.8
2019-02-14T01:23:03.149Z,1038.9
2019-02-14T01:24:03.375Z,1038.9
2019-02-14T01:25:04.058Z,1038.9
2019-02-14T01:26:03.281Z,1038.8
2019-02-14T01:27:04.126Z,1038.7
2019-02-14T01:28:03.373Z,1038.7
2019-02-14T01:29:03.870Z,1038.8
2019-02-14T01:30:03.093Z,1038.8
2019-02-14T01:31:03.534Z,1038.8
2019-02-14T01:32:03.726Z,1038.8
2019-02-14T01:33:03.570Z,1038.9
2019-02-14T01:34:03.032Z,1038.8
2019-02-14T01:35:03.500Z,1038.8
2019-02-14T01:36:04.996Z,1038.7
2019-02-14T01:37:03.110Z,1038.8
2019-02-14T01:38:03.336Z,1038.8
2019-02-14T01:39:03.117Z,1038.8
2019-02-14T01:40:03.573Z,1038.7
2019-02-14T01:41:03.142Z,1038.8
2019-02-14T01:42:03.237Z,1038.8
2019-02-14T01:43:03.703Z,1038.7
2019-02-14T01:44:02.972Z,1038.8
2019-02-14T01:45:03.066Z,1038.7
2019-02-14T01:46:03.294Z,1038.8
2019-02-14T01:47:03.120Z,1038.9
2019-02-14T01:48:03.088Z,1038.9
2019-02-14T01:49:03.452Z,1038.9
2019-02-14T01:50:02.983Z,1038.9
2019-02-14T01:51:03.404Z,1038.9
2019-02-14T01:52:03.112Z,1038.9
2019-02-14T01:53:03.990Z,1038.9
2019-02-14T01:54:03.375Z,1039
2019-02-14T01:55:03.856Z,1038.9
2019-02-14T01:56:03.959Z,1039
2019-02-14T01:57:03.498Z,1039
2019-02-14T01:58:03.727Z,1039
2019-02-14T01:59:03.082Z,1039.1
2019-02-14T02:00:03.952Z,1039
2019-02-14T02:01:02.923Z,1039
2019-02-14T02:02:03.434Z,1039.1
2019-02-14T02:03:03.671Z,1038.9
2019-02-14T02:04:03.115Z,1038.9
2019-02-14T02:05:03.776Z,1038.9
2019-02-14T02:06:03.609Z,1038.9
2019-02-14T02:07:03.855Z,1038.9
2019-02-14T02:08:03.263Z,1038.9
2019-02-14T02:09:03.722Z,1039
2019-02-14T02:10:03.388Z,1039
2019-02-14T02:11:03.620Z,1038.8
2019-02-14T02:12:03.325Z,1038.8
2019-02-14T02:13:03.696Z,1038.8
2019-02-14T02:14:03.184Z,1038.8
2019-02-14T02:15:03.388Z,1038.7
2019-02-14T02:16:03.379Z,1038.8
2019-02-14T02:17:03.370Z,1038.9
2019-02-14T02:18:03.518Z,1038.9
2019-02-14T02:19:03.332Z,1038.8
2019-02-14T02:20:03.971Z,1038.8
2019-02-14T02:21:03.111Z,1038.7
2019-02-14T02:22:03.660Z,1038.7
2019-02-14T02:23:03.151Z,1038.7
2019-02-14T02:24:03.680Z,1038.7
2019-02-14T02:25:03.796Z,1038.7
2019-02-14T02:26:03.413Z,1038.7
2019-02-14T02:27:03.732Z,1038.7
2019-02-14T02:28:03.256Z,1038.7
2019-02-14T02:29:03.839Z,1038.7
2019-02-14T02:30:03.529Z,1038.7
2019-02-14T02:31:03.868Z,1038.7
2019-02-14T02:32:03.507Z,1038.8
2019-02-14T02:33:03.505Z,1038.8
2019-02-14T02:34:03.047Z,1038.7
2019-02-14T02:35:03.721Z,1038.8
2019-02-14T02:36:02.972Z,1038.7
2019-02-14T02:37:03.509Z,1038.8
2019-02-14T02:38:02.918Z,1038.8
2019-02-14T02:39:03.280Z,1038.7
2019-02-14T02:40:04.225Z,1038.7
2019-02-14T02:41:03.209Z,1038.9
2019-02-14T02:42:03.981Z,1038.7
2019-02-14T02:43:03.365Z,1038.7
2019-02-14T02:44:02.956Z,1038.7
2019-02-14T02:45:03.513Z,1038.7
2019-02-14T02:46:03.737Z,1038.7
2019-02-14T02:47:03.012Z,1038.7
2019-02-14T02:48:03.944Z,1038.8
2019-02-14T02:49:03.217Z,1038.8
2019-02-14T02:50:03.719Z,1038.6
2019-02-14T02:51:03.052Z,1038.8
2019-02-14T02:52:03.334Z,1038.9
2019-02-14T02:53:03.738Z,1038.9
2019-02-14T02:54:03.349Z,1038.9
2019-02-14T02:55:04.193Z,1038.9
2019-02-14T02:56:03.065Z,1038.8
2019-02-14T02:57:03.983Z,1038.8
2019-02-14T02:58:03.117Z,1038.8
2019-02-14T02:59:03.899Z,1038.9
2019-02-14T03:00:02.875Z,1038.8
2019-02-14T03:01:03.774Z,1038.9
2019-02-14T03:02:03.485Z,1038.9
2019-02-14T03:03:02.341Z,1038.9
2019-02-14T03:04:03.341Z,1038.9
2019-02-14T03:05:03.830Z,1038.8
2019-02-14T03:06:11.346Z,1038.9
2019-02-14T03:07:03.629Z,1038.8
2019-02-14T03:08:02.925Z,1038.9
2019-02-14T03:09:03.710Z,1038.9
2019-02-14T03:10:03.274Z,1038.8
2019-02-14T03:11:03.690Z,1038.8
2019-02-14T03:12:03.094Z,1038.8
2019-02-14T03:13:03.333Z,1038.8
2019-02-14T03:14:03.881Z,1038.7
2019-02-14T03:15:03.725Z,1038.8
2019-02-14T03:16:02.955Z,1038.8
2019-02-14T03:17:03.359Z,1038.7
2019-02-14T03:18:03.758Z,1038.9
2019-02-14T03:19:03.851Z,1038.8
2019-02-14T03:20:03.314Z,1038.8
2019-02-14T03:21:03.711Z,1038.8
2019-02-14T03:22:03.598Z,1038.7
2019-02-14T03:23:03.937Z,1038.6
2019-02-14T03:24:03.452Z,1038.6
2019-02-14T03:25:04.012Z,1038.6
2019-02-14T03:26:03.454Z,1038.6
2019-02-14T03:27:03.767Z,1038.7
2019-02-14T03:28:03.270Z,1038.6
2019-02-14T03:29:03.542Z,1038.6
2019-02-14T03:30:03.168Z,1038.6
2019-02-14T03:31:03.232Z,1038.7
2019-02-14T03:32:03.168Z,1038.7
2019-02-14T03:33:03.489Z,1038.7
2019-02-14T03:34:03.941Z,1038.8
2019-02-14T03:35:03.486Z,1038.7
2019-02-14T03:36:03.976Z,1038.7
2019-02-14T03:37:03.606Z,1038.8
2019-02-14T03:38:03.284Z,1038.8
2019-02-14T03:39:03.171Z,1038.9
2019-02-14T03:40:03.234Z,1038.9
2019-02-14T03:41:03.710Z,1039.1
2019-02-14T03:42:03.111Z,1039.1
2019-02-14T03:43:03.664Z,1039
2019-02-14T03:44:03.132Z,1039.2
2019-02-14T03:45:03.471Z,1039.2
2019-02-14T03:46:03.842Z,1039.1
2019-02-14T03:47:03.401Z,1039
2019-02-14T03:48:03.081Z,1039.1
2019-02-14T03:49:03.632Z,1039.1
2019-02-14T03:50:03.821Z,1039.1
2019-02-14T03:51:03.347Z,1039.1
2019-02-14T03:52:03.957Z,1039.1
2019-02-14T03:53:03.306Z,1039.2
2019-02-14T03:54:03.568Z,1039.2
2019-02-14T03:55:03.534Z,1039.2
2019-02-14T03:56:03.437Z,1039.1
2019-02-14T03:57:03.090Z,1039.3
2019-02-14T03:58:03.518Z,1039.2
2019-02-14T03:59:03.228Z,1039.2
2019-02-14T04:00:03.791Z,1039.2
2019-02-14T04:01:02.932Z,1039.2
2019-02-14T04:02:03.688Z,1039.3
2019-02-14T04:03:03.590Z,1039.4
2019-02-14T04:04:03.070Z,1039.3
2019-02-14T04:05:03.674Z,1039.3
2019-02-14T04:06:03.304Z,1039.4
2019-02-14T04:07:02.830Z,1039.3
2019-02-14T04:08:03.276Z,1039.3
2019-02-14T04:09:03.751Z,1039.4
2019-02-14T04:10:03.251Z,1039.3
2019-02-14T04:11:03.798Z,1039.3
2019-02-14T04:12:03.034Z,1039.3
2019-02-14T04:13:03.112Z,1039.3
2019-02-14T04:14:02.979Z,1039.2
2019-02-14T04:15:03.557Z,1039.2
2019-02-14T04:16:04.918Z,1039.2
2019-02-14T04:17:03.354Z,1039.3
2019-02-14T04:18:03.057Z,1039.2
2019-02-14T04:19:03.349Z,1039.3
2019-02-14T04:20:04.095Z,1039.3
2019-02-14T04:21:03.231Z,1039.1
2019-02-14T04:22:03.700Z,1039.1
2019-02-14T04:23:03.056Z,1039.1
2019-02-14T04:24:03.488Z,1039.1
2019-02-14T04:25:03.304Z,1039.1
2019-02-14T04:26:03.200Z,1039.1
2019-02-14T04:27:03.840Z,1039.1
2019-02-14T04:28:02.903Z,1039.1
2019-02-14T04:29:03.628Z,1039.1
2019-02-14T04:30:03.327Z,1039.1
2019-02-14T04:31:03.632Z,1039
2019-02-14T04:32:03.136Z,1039.1
2019-02-14T04:33:03.856Z,1039
2019-02-14T04:34:03.155Z,1038.9
2019-02-14T04:35:03.048Z,1039.1
2019-02-14T04:36:03.015Z,1039
2019-02-14T04:37:03.674Z,1039.1
2019-02-14T04:38:03.109Z,1039
2019-02-14T04:39:03.736Z,1039
2019-02-14T04:40:04.053Z,1039
2019-02-14T04:41:03.053Z,1039
2019-02-14T04:42:03.651Z,1038.9
2019-02-14T04:43:03.673Z,1038.9
2019-02-14T04:44:02.983Z,1039
2019-02-14T04:45:03.519Z,1038.9
2019-02-14T04:46:03.951Z,1039
2019-02-14T04:47:03.026Z,1039
2019-02-14T04:48:03.485Z,1038.9
2019-02-14T04:49:03.240Z,1038.9
2019-02-14T04:50:03.684Z,1038.9
2019-02-14T04:51:03.721Z,1038.9
2019-02-14T04:52:03.374Z,1038.8
2019-02-14T04:53:04.009Z,1038.9
2019-02-14T04:54:03.423Z,1038.9
2019-02-14T04:55:03.594Z,1038.8
2019-02-14T04:56:03.367Z,1038.8
2019-02-14T04:57:03.551Z,1038.9
2019-02-14T04:58:03.175Z,1038.9
2019-02-14T04:59:03.246Z,1038.9
2019-02-14T05:00:03.946Z,1038.8
2019-02-14T05:01:03.233Z,1038.9
2019-02-14T05:02:03.931Z,1038.9
2019-02-14T05:03:03.177Z,1038.9
2019-02-14T05:04:03.742Z,1038.9
2019-02-14T05:05:03.075Z,1038.9
2019-02-14T05:06:04.261Z,1038.9
2019-02-14T05:07:02.980Z,1038.9
2019-02-14T05:08:03.791Z,1039
2019-02-14T05:09:02.939Z,1039
2019-02-14T05:10:03.973Z,1039
2019-02-14T05:11:02.970Z,1039.1
2019-02-14T05:12:03.790Z,1039.1
2019-02-14T05:13:02.992Z,1039
2019-02-14T05:14:03.502Z,1039.1
2019-02-14T05:15:03.403Z,1039.2
2019-02-14T05:16:03.853Z,1039.2
2019-02-14T05:17:03.406Z,1039.1
2019-02-14T05:18:03.363Z,1039.1
2019-02-14T05:19:03.063Z,1039.1
2019-02-14T05:20:03.950Z,1039.2
2019-02-14T05:21:03.187Z,1039.1
2019-02-14T05:22:03.056Z,1039.1
2019-02-14T05:23:03.662Z,1039.1
2019-02-14T05:24:03.230Z,1039.2
2019-02-14T05:25:03.669Z,1039.3
2019-02-14T05:26:02.788Z,1039.2
2019-02-14T05:27:03.754Z,1039.3
2019-02-14T05:28:03.002Z,1039.1
2019-02-14T05:29:03.751Z,1039.1
2019-02-14T05:30:03.342Z,1039.2
2019-02-14T05:31:03.307Z,1039.2
2019-02-14T05:32:03.761Z,1039.1
2019-02-14T05:33:03.325Z,1039.2
2019-02-14T05:34:03.824Z,1039.2
2019-02-14T05:35:03.310Z,1039.1
2019-02-14T05:36:02.921Z,1039.2
2019-02-14T05:37:03.530Z,1039.2
2019-02-14T05:38:03.309Z,1039.3
2019-02-14T05:39:03.540Z,1039.2
2019-02-14T05:40:02.933Z,1039.2
2019-02-14T05:41:03.658Z,1039.3
2019-02-14T05:42:03.042Z,1039.3
2019-02-14T05:43:03.485Z,1039.3
2019-02-14T05:44:03.013Z,1039.2
2019-02-14T05:45:03.242Z,1039.2
2019-02-14T05:46:03.106Z,1039.3
2019-02-14T05:47:03.230Z,1039.3
2019-02-14T05:48:03.014Z,1039.4
2019-02-14T05:49:03.337Z,1039.3
2019-02-14T05:50:03.816Z,1039.3
2019-02-14T05:51:03.222Z,1039.3
2019-02-14T05:52:03.663Z,1039.3
2019-02-14T05:53:03.874Z,1039.3
2019-02-14T05:54:03.325Z,1039.3
2019-02-14T05:55:03.193Z,1039.3
2019-02-14T05:56:03.716Z,1039.3
2019-02-14T05:57:03.040Z,1039.3
2019-02-14T05:58:03.550Z,1039.3
2019-02-14T05:59:03.055Z,1039.4
2019-02-14T06:00:03.625Z,1039.4
2019-02-14T06:01:02.891Z,1039.4
2019-02-14T06:02:02.944Z,1039.4
2019-02-14T06:03:03.033Z,1039.4
2019-02-14T06:04:03.886Z,1039.5
2019-02-14T06:05:03.514Z,1039.5
2019-02-14T06:06:03.088Z,1039.4
2019-02-14T06:07:03.696Z,1039.4
2019-02-14T06:08:03.875Z,1039.5
2019-02-14T06:09:03.414Z,1039.6
2019-02-14T06:10:03.839Z,1039.5
2019-02-14T06:11:03.530Z,1039.5
2019-02-14T06:12:03.488Z,1039.5
2019-02-14T06:13:03.199Z,1039.5
2019-02-14T06:14:03.816Z,1039.6
2019-02-14T06:15:03.436Z,1039.6
2019-02-14T06:16:03.777Z,1039.6
2019-02-14T06:17:03.568Z,1039.6
2019-02-14T06:18:03.857Z,1039.7
2019-02-14T06:19:03.027Z,1039.6
2019-02-14T06:20:03.644Z,1039.6
2019-02-14T06:21:04.042Z,1039.6
2019-02-14T06:22:03.481Z,1039.6
2019-02-14T06:23:03.400Z,1039.6
2019-02-14T06:24:03.402Z,1039.6
2019-02-14T06:25:03.824Z,1039.6
2019-02-14T06:26:03.129Z,1039.6
2019-02-14T06:27:03.553Z,1039.7
2019-02-14T06:28:03.282Z,1039.6
2019-02-14T06:29:03.631Z,1039.5
2019-02-14T06:30:03.105Z,1039.6
2019-02-14T06:31:03.429Z,1039.7
2019-02-14T06:32:03.062Z,1039.7
2019-02-14T06:33:03.388Z,1039.6
2019-02-14T06:34:02.824Z,1039.6
2019-02-14T06:35:03.397Z,1039.7
2019-02-14T06:36:03.258Z,1039.7
2019-02-14T06:37:10.375Z,1039.7
2019-02-14T06:38:03.426Z,1039.6
2019-02-14T06:39:03.511Z,1039.7
2019-02-14T06:40:03.213Z,1039.8
2019-02-14T06:41:04.039Z,1039.7
2019-02-14T06:42:03.299Z,1039.7
2019-02-14T06:43:04.187Z,1039.8
2019-02-14T06:44:03.266Z,1039.8
2019-02-14T06:45:02.826Z,1039.7
2019-02-14T06:46:03.634Z,1039.8
2019-02-14T06:47:05.044Z,1039.8
2019-02-14T06:48:03.703Z,1039.8
2019-02-14T06:49:03.888Z,1039.8
2019-02-14T06:50:02.957Z,1039.8
2019-02-14T06:51:03.429Z,1039.8
2019-02-14T06:52:03.287Z,1039.8
2019-02-14T06:53:03.415Z,1039.8
2019-02-14T06:54:04.032Z,1039.7
2019-02-14T06:55:03.411Z,1039.7
2019-02-14T06:56:04.019Z,1039.7
2019-02-14T06:57:03.549Z,1039.7
2019-02-14T06:58:03.999Z,1039.7
2019-02-14T06:59:03.439Z,1039.8
2019-02-14T07:00:04.055Z,1039.8
2019-02-14T07:01:03.296Z,1039.8
2019-02-14T07:02:03.148Z,1039.8
2019-02-14T07:03:03.593Z,1039.9
2019-02-14T07:04:03.931Z,1039.9
2019-02-14T07:05:03.235Z,1039.9
2019-02-14T07:06:02.942Z,1039.9
2019-02-14T07:07:03.799Z,1039.9
2019-02-14T07:08:03.882Z,1039.8
2019-02-14T07:09:03.135Z,1039.9
2019-02-14T07:10:03.761Z,1039.8
2019-02-14T07:11:03.723Z,1040
2019-02-14T07:12:03.427Z,1039.9
2019-02-14T07:13:03.656Z,1039.8
2019-02-14T07:14:03.817Z,1039.9
2019-02-14T07:15:03.342Z,1039.7
2019-02-14T07:16:03.761Z,1039.7
2019-02-14T07:17:03.371Z,1039.7
2019-02-14T07:18:03.475Z,1039.7
2019-02-14T07:19:03.155Z,1039.7
2019-02-14T07:20:03.973Z,1039.8
2019-02-14T07:21:03.024Z,1039.7
2019-02-14T07:22:03.800Z,1039.7
2019-02-14T07:23:02.962Z,1039.8
2019-02-14T07:24:03.811Z,1039.7
2019-02-14T07:25:03.158Z,1039.8
2019-02-14T07:26:03.703Z,1039.8
2019-02-14T07:27:03.321Z,1039.8
2019-02-14T07:28:03.982Z,1039.8
2019-02-14T07:29:03.621Z,1039.7
2019-02-14T07:30:03.124Z,1039.6
2019-02-14T07:31:03.505Z,1039.5
2019-02-14T07:32:03.411Z,1039.5
2019-02-14T07:33:03.641Z,1039.6
2019-02-14T07:34:04.438Z,1039.5
2019-02-14T07:35:03.871Z,1039.4
2019-02-14T07:36:03.252Z,1039.5
2019-02-14T07:37:03.678Z,1039.5
2019-02-14T07:38:03.089Z,1039.5
2019-02-14T07:39:03.819Z,1039.5
2019-02-14T07:40:03.040Z,1039.5
2019-02-14T07:41:03.556Z,1039.5
2019-02-14T07:42:03.753Z,1039.6
2019-02-14T07:43:03.762Z,1039.6
2019-02-14T07:44:03.691Z,1039.6
2019-02-14T07:45:03.368Z,1039.5
2019-02-14T07:46:03.413Z,1039.5
2019-02-14T07:47:03.070Z,1039.5
2019-02-14T07:48:03.354Z,1039.7
2019-02-14T07:49:03.790Z,1039.6
2019-02-14T07:50:03.426Z,1039.6
2019-02-14T07:51:02.921Z,1039.6
2019-02-14T07:52:03.489Z,1039.5
2019-02-14T07:53:03.173Z,1039.5
2019-02-14T07:54:03.207Z,1039.5
2019-02-14T07:55:03.923Z,1039.4
2019-02-14T07:56:03.281Z,1039.6
2019-02-14T07:57:03.792Z,1039.3
2019-02-14T07:58:03.348Z,1039.3
2019-02-14T07:59:03.920Z,1039.4
2019-02-14T08:00:03.547Z,1039.5
2019-02-14T08:01:03.891Z,1039.4
2019-02-14T08:02:03.535Z,1039.4
2019-02-14T08:03:03.941Z,1039.6
2019-02-14T08:04:03.495Z,1039.4
2019-02-14T08:05:03.096Z,1039.4
2019-02-14T08:06:03.363Z,1039.4
2019-02-14T08:07:03.799Z,1039.3
2019-02-14T08:08:02.999Z,1039.3
2019-02-14T08:09:03.229Z,1039.3
2019-02-14T08:10:02.972Z,1039.3
2019-02-14T08:11:03.244Z,1039.4
2019-02-14T08:12:03.944Z,1039.4
2019-02-14T08:13:03.057Z,1039.4
2019-02-14T08:14:03.722Z,1039.4
2019-02-14T08:15:03.338Z,1039.3
2019-02-14T08:16:03.848Z,1039.4
2019-02-14T08:17:03.855Z,1039.3
2019-02-14T08:18:03.189Z,1039.3
2019-02-14T08:19:03.293Z,1039.3
2019-02-14T08:20:03.949Z,1039.3
2019-02-14T08:21:03.397Z,1039.4
2019-02-14T08:22:03.942Z,1039.4
2019-02-14T08:23:03.433Z,1039.3
2019-02-14T08:24:03.878Z,1039.4
2019-02-14T08:25:03.234Z,1039.4
2019-02-14T08:26:11.595Z,1039.3
2019-02-14T08:27:04.055Z,1039.4
2019-02-14T08:28:03.412Z,1039.2
2019-02-14T08:29:02.909Z,1039.2
2019-02-14T08:30:03.575Z,1039.2
2019-02-14T08:31:03.822Z,1039.2
2019-02-14T08:32:03.242Z,1039.2
2019-02-14T08:33:03.703Z,1039.2
2019-02-14T08:34:03.313Z,1039.2
2019-02-14T08:35:03.777Z,1039.2
2019-02-14T08:36:03.419Z,1039.1
2019-02-14T08:37:03.924Z,1039.1
2019-02-14T08:38:03.450Z,1039.1
2019-02-14T08:39:03.009Z,1039.1
2019-02-14T08:40:03.400Z,1039
2019-02-14T08:41:03.707Z,1039
2019-02-14T08:42:03.335Z,1039.1
2019-02-14T08:43:03.742Z,1039.1
2019-02-14T08:44:03.486Z,1039
2019-02-14T08:45:04.039Z,1039
2019-02-14T08:46:03.444Z,1039
2019-02-14T08:47:03.746Z,1039
2019-02-14T08:48:03.817Z,1039
2019-02-14T08:49:03.032Z,1039.1
2019-02-14T08:50:03.352Z,1039.1
2019-02-14T08:51:03.646Z,1039.1
2019-02-14T08:52:03.439Z,1039.1
2019-02-14T08:53:04.037Z,1039.1
2019-02-14T08:54:03.581Z,1039.1
2019-02-14T08:55:04.066Z,1039.1
2019-02-14T08:56:03.396Z,1039.1
2019-02-14T08:57:03.828Z,1039.1
2019-02-14T08:58:03.324Z,1038.9
2019-02-14T08:59:03.857Z,1039
2019-02-14T09:00:03.269Z,1039
2019-02-14T09:01:03.634Z,1039.1
2019-02-14T09:02:03.350Z,1039
2019-02-14T09:03:03.515Z,1039
2019-02-14T09:04:03.121Z,1039
2019-02-14T09:05:03.593Z,1039
2019-02-14T09:06:02.970Z,1039
2019-02-14T09:07:03.757Z,1039
2019-02-14T09:08:02.957Z,1039
2019-02-14T09:09:03.634Z,1038.9
2019-02-14T09:10:03.845Z,1038.9
2019-02-14T09:11:03.494Z,1039
2019-02-14T09:12:03.285Z,1038.9
2019-02-14T09:13:03.808Z,1038.8
2019-02-14T09:14:03.302Z,1038.9
2019-02-14T09:15:03.906Z,1038.8
2019-02-14T09:16:03.184Z,1038.8
2019-02-14T09:17:03.046Z,1038.7
2019-02-14T09:18:03.132Z,1038.7
2019-02-14T09:19:03.421Z,1038.8
2019-02-14T09:20:03.204Z,1038.7
2019-02-14T09:21:03.532Z,1038.7
2019-02-14T09:22:03.142Z,1038.7
2019-02-14T09:23:03.137Z,1038.9
2019-02-14T09:24:03.688Z,1038.8
2019-02-14T09:25:03.024Z,1038.8
2019-02-14T09:26:04.095Z,1039
2019-02-14T09:27:03.366Z,1038.9
2019-02-14T09:28:03.574Z,1038.8
2019-02-14T09:29:03.432Z,1038.8
2019-02-14T09:30:03.580Z,1038.6
2019-02-14T09:31:03.044Z,1038.7
2019-02-14T09:32:03.560Z,1038.7
2019-02-14T09:33:03.096Z,1038.7
2019-02-14T09:34:03.507Z,1038.6
2019-02-14T09:35:03.014Z,1038.6
2019-02-14T09:36:03.512Z,1038.5
2019-02-14T09:37:03.618Z,1038.6
2019-02-14T09:38:04.166Z,1038.6
2019-02-14T09:39:03.885Z,1038.5
2019-02-14T09:40:03.274Z,1038.4
2019-02-14T09:41:03.381Z,1038.4
2019-02-14T09:42:03.162Z,1038.3
2019-02-14T09:43:03.500Z,1038.3
2019-02-14T09:44:03.305Z,1038.2
2019-02-14T09:45:03.612Z,1038.2
2019-02-14T09:46:02.986Z,1038.1
2019-02-14T09:47:03.687Z,1037.9
2019-02-14T09:48:03.110Z,1037.9
2019-02-14T09:49:03.877Z,1038
2019-02-14T09:50:03.271Z,1037.9
2019-02-14T09:51:02.989Z,1038
2019-02-14T09:52:03.208Z,1037.9
2019-02-14T09:53:03.791Z,1037.9
2019-02-14T09:54:03.541Z,1037.9
2019-02-14T09:55:04.170Z,1037.9
2019-02-14T09:56:03.684Z,1037.9
2019-02-14T09:57:03.713Z,1037.9
2019-02-14T09:58:03.308Z,1037.9
2019-02-14T09:59:03.524Z,1038.2
2019-02-14T10:00:03.574Z,1038.2
2019-02-14T10:01:03.757Z,1038.2
2019-02-14T10:02:03.524Z,1038.3
2019-02-14T10:03:02.798Z,1038.2
2019-02-14T10:04:03.237Z,1038.2
2019-02-14T10:05:03.931Z,1038.3
2019-02-14T10:06:03.110Z,1038.3
2019-02-14T10:07:03.422Z,1038.3
2019-02-14T10:08:13.694Z,1038.3
2019-02-14T10:09:03.592Z,1038.4
2019-02-14T10:10:03.971Z,1038.4
2019-02-14T10:11:03.490Z,1038.5
2019-02-14T10:12:03.863Z,1038.4
2019-02-14T10:13:03.320Z,1038.4
2019-02-14T10:14:04.088Z,1038.5
2019-02-14T10:15:03.011Z,1038.5
2019-02-14T10:16:03.444Z,1038.4
2019-02-14T10:17:03.688Z,1038.5
2019-02-14T10:18:03.384Z,1038.4
2019-02-14T10:19:03.613Z,1038.4
2019-02-14T10:20:03.010Z,1038.6
2019-02-14T10:21:03.392Z,1038.6
2019-02-14T10:22:03.345Z,1038.4
2019-02-14T10:23:03.454Z,1038.4
2019-02-14T10:24:03.359Z,1038.4
2019-02-14T10:25:03.821Z,1038.3
2019-02-14T10:26:03.088Z,1038.3
2019-02-14T10:27:03.585Z,1038.1
2019-02-14T10:28:03.036Z,1038.1
2019-02-14T10:29:03.524Z,1038
2019-02-14T10:30:03.275Z,1037.9
2019-02-14T10:31:03.514Z,1037.6
2019-02-14T10:32:03.665Z,1037.6
2019-02-14T10:33:03.581Z,1037.7
2019-02-14T10:34:03.708Z,1037.5
2019-02-14T10:35:03.527Z,1037.4
2019-02-14T10:36:04.886Z,1037.4
2019-02-14T10:37:03.212Z,1037.4
2019-02-14T10:38:03.006Z,1037.4
2019-02-14T10:39:03.753Z,1037.3
2019-02-14T10:40:03.587Z,1037.3
2019-02-14T10:41:03.807Z,1037.4
2019-02-14T10:42:03.447Z,1037.4
2019-02-14T10:43:03.150Z,1037.2
2019-02-14T10:44:03.386Z,1037.1
2019-02-14T10:45:03.027Z,1037.1
2019-02-14T10:46:03.163Z,1037.2
2019-02-14T10:47:03.766Z,1037.1
2019-02-14T10:48:02.947Z,1037.3
2019-02-14T10:49:03.787Z,1037.3
2019-02-14T10:50:03.379Z,1037.3
2019-02-14T10:51:03.761Z,1037.4
2019-02-14T10:52:03.134Z,1037.3
2019-02-14T10:53:03.747Z,1037.3
2019-02-14T10:54:03.254Z,1037.4
2019-02-14T10:55:03.074Z,1037.5
2019-02-14T10:56:03.523Z,1037.2
2019-02-14T10:57:02.838Z,1037.3
2019-02-14T10:58:03.119Z,1037.2
2019-02-14T10:59:03.681Z,1037.2
2019-02-14T11:00:03.220Z,1037.2
2019-02-14T11:01:02.830Z,1037.3
2019-02-14T11:02:03.180Z,1037.3
2019-02-14T11:03:03.353Z,1037.3
2019-02-14T11:04:03.411Z,1037.3
2019-02-14T11:05:03.843Z,1037.3
2019-02-14T11:06:03.284Z,1037.2
2019-02-14T11:07:03.539Z,1037.2
2019-02-14T11:08:03.838Z,1037.2
2019-02-14T11:09:03.383Z,1037.2
2019-02-14T11:10:03.774Z,1037.3
2019-02-14T11:11:03.144Z,1037.1
2019-02-14T11:12:03.534Z,1037.1
2019-02-14T11:13:03.805Z,1037.2
2019-02-14T11:14:03.854Z,1037.1
2019-02-14T11:15:03.046Z,1037.1
2019-02-14T11:16:03.795Z,1037.1
2019-02-14T11:17:03.223Z,1037.2
2019-02-14T11:18:03.056Z,1037.1
2019-02-14T11:19:03.592Z,1037.1
2019-02-14T11:20:03.717Z,1037.2
2019-02-14T11:21:03.600Z,1037.2
2019-02-14T11:22:03.145Z,1037.2
2019-02-14T11:23:03.390Z,1037.1
2019-02-14T11:24:03.039Z,1037.1
2019-02-14T11:25:03.654Z,1037.1
2019-02-14T11:26:03.749Z,1037.1
2019-02-14T11:27:03.667Z,1037.2
2019-02-14T11:28:03.898Z,1037
2019-02-14T11:29:03.218Z,1037.1
2019-02-14T11:30:03.548Z,1037
2019-02-14T11:31:02.870Z,1037
2019-02-14T11:32:03.626Z,1037
2019-02-14T11:33:03.061Z,1037.1
2019-02-14T11:34:04.261Z,1037.1
2019-02-14T11:35:03.057Z,1037
2019-02-14T11:36:03.263Z,1037
2019-02-14T11:37:03.774Z,1037
2019-02-14T11:38:03.114Z,1037
2019-02-14T11:39:03.777Z,1037
2019-02-14T11:40:03.289Z,1037
2019-02-14T11:41:03.508Z,1037
2019-02-14T11:42:03.925Z,1037
2019-02-14T11:43:03.741Z,1037.1
2019-02-14T11:44:03.933Z,1037
2019-02-14T11:45:03.980Z,1037.1
2019-02-14T11:46:03.391Z,1037
2019-02-14T11:47:03.174Z,1036.9
2019-02-14T11:48:03.259Z,1036.9
2019-02-14T11:49:03.005Z,1037
2019-02-14T11:50:03.601Z,1036.9
2019-02-14T11:51:03.923Z,1036.8
2019-02-14T11:52:03.234Z,1036.8
2019-02-14T11:53:03.195Z,1036.7
2019-02-14T11:54:03.557Z,1036.7
2019-02-14T11:55:04.134Z,1036.5
2019-02-14T11:56:03.238Z,1036.5
2019-02-14T11:57:03.266Z,1036.5
2019-02-14T11:58:03.712Z,1036.5
2019-02-14T11:59:03.500Z,1036.4
2019-02-14T12:00:03.057Z,1036.3
2019-02-14T12:01:03.756Z,1036.3
2019-02-14T12:02:02.844Z,1036.2
2019-02-14T12:03:03.235Z,1036.1
2019-02-14T12:04:03.764Z,1036.1
2019-02-14T12:05:03.092Z,1036.1
2019-02-14T12:06:03.984Z,1035.9
2019-02-14T12:07:03.215Z,1036
2019-02-14T12:08:03.906Z,1036.1
2019-02-14T12:09:03.353Z,1036
2019-02-14T12:10:14.266Z,1036.1
2019-02-14T12:11:03.174Z,1036.1
2019-02-14T12:12:03.580Z,1036.1
2019-02-14T12:13:03.094Z,1036.2
2019-02-14T12:14:03.556Z,1036.1
2019-02-14T12:15:03.348Z,1036.2
2019-02-14T12:16:03.443Z,1036.2
2019-02-14T12:17:03.800Z,1036.1
2019-02-14T12:18:03.472Z,1036.3
2019-02-14T12:19:03.855Z,1036.2
2019-02-14T12:20:03.729Z,1036.2
2019-02-14T12:21:03.847Z,1036.1
2019-02-14T12:22:04.056Z,1036.2
2019-02-14T12:23:03.478Z,1036.2
2019-02-14T12:24:03.831Z,1036.1
2019-02-14T12:25:03.544Z,1036.2
2019-02-14T12:26:03.258Z,1036.3
2019-02-14T12:27:03.514Z,1036
2019-02-14T12:28:03.011Z,1036.1
2019-02-14T12:29:03.998Z,1036.1
2019-02-14T12:30:03.308Z,1036.1
2019-02-14T12:31:04.187Z,1036
2019-02-14T12:32:03.061Z,1035.8
2019-02-14T12:33:03.241Z,1035.7